Welcome to Trans World Virtual Airlines!

Welcome TWVA's Newest Pilot:

TWA2313 Bryan Heald

Not a Trans World pilot yet?
Apply Now!




Sign-in with your pilot id or email, or register

Flight TWA509

  • Submitted By: Austin Hill
  • Departure Airport: Kansas City International Airport (KMCI)
  • Arrival Airport: Denver International Airport (KDEN)
  • Aircraft: MD-83 (N44266TW)
  • Flight Time: 02.00
  • Date Submitted: 11/04/2018
  • Route: MCI CATTS SLOWR HLC GLD FQF
  • Status: Accepted
Flight Details
Gross Revenue:
(124 load / $ 195.00 per unit
$ 24, 180.00
Fuel Cost:
(16666 fuel used @ 0.8 / unit)
$ 13, 332.80

Additional Log Information:

View Log

FS[17:59] Aircraft Title - MD_83 Paint4
FS[17:59] Aircraft Model - MD83
FS[17:59] Flight Number TWA509
FS[17:59] Departure KMCI
FS[17:59] Destination KDEN
FS[17:59] Boarding
FS[18:07] Pushing Back
FS[18:10] Taxiing to Runway
FS[18:15] Taking Off
FS[18:15] Taking Off
FS[18:15] 154kts
FS[18:15] pitch angle 13 degrees
FS[18:15] 30397 (lbs) of fuel onboard
FS[18:15] Climbing
FS[18:29] TOC Reached
FS[18:29] Cruise 28000
FS[19:14] TOD Reached
FS[19:14] Descending
FS[19:23] On Approach
FS[19:33] Landing Rate -131fpm
FS[19:33] 16507 (lbs) of fuel onboard
FS[19:33] pitch angle 8 degrees
FS[19:34] Taxiing to Gate
FS[19:50] Arrived
FS[19:57] Max Sim Rate: 1x
FS[19:57] kACARS_Free Version 1.0.1.1

Comments

Commenter Comment
Austin Hill KMCI 041753Z 26012KT 10SM BKN021 OVC026 08/05 A2987 // KDEN 041753Z 18008KT 10SM FEW070 SCT120 SCT170 BKN220 13/M05 A2972

Route Map